Time;durP1;ratioP1;P1;durP2;ratioP2;P2;SDS_P1;SDS_P2;PMS_P1;PMS_P2;Temp;Humidity;BMP_temperature;BMP_pressure;BME280_temperature;BME280_humidity;BME280_pressure;Samples;Min_cycle;Max_cycle;Signal;HPM_P1;HPM_P2
2022/08/11 00:02:32;;;;;;;3.88;2.20;;;;;;;20.36;50.09;100694.84;5113267;28;20055;-70
2022/08/11 00:05:08;;;;;;;5.18;2.20;;;;;;;20.29;50.70;100693.75;5113272;28;20093;-70
2022/08/11 00:07:43;;;;;;;4.30;2.17;;;;;;;20.14;51.19;100695.16;5113094;28;20051;-70
2022/08/11 00:10:14;;;;;;;3.80;2.08;;;;;;;20.16;51.30;100691.31;5113197;28;20043;-72
2022/08/11 00:12:44;;;;;;;5.03;2.13;;;;;;;20.17;51.27;100689.44;5146514;27;20051;-71
2022/08/11 00:15:12;;;;;;;3.78;2.00;;;;;;;20.14;51.56;100684.31;5113049;28;20079;-73
2022/08/11 00:17:44;;;;;;;4.80;2.25;;;;;;;20.14;51.93;100690.59;5113092;28;20092;-71
2022/08/11 00:20:15;;;;;;;3.67;2.00;;;;;;;19.98;52.16;100685.78;5113105;28;20077;-71
2022/08/11 00:22:47;;;;;;;3.65;2.35;;;;;;;19.97;52.35;100681.31;5113086;28;20396;-70
2022/08/11 00:25:18;;;;;;;6.47;2.30;;;;;;;19.82;53.04;100674.66;5112275;28;20152;-70
2022/08/11 00:27:47;;;;;;;3.97;2.47;;;;;;;19.72;53.31;100676.50;5113020;28;20074;-70
2022/08/11 00:30:17;;;;;;;6.13;2.17;;;;;;;19.83;53.18;100673.66;5113030;28;20357;-70
2022/08/11 00:32:55;;;;;;;4.28;2.28;;;;;;;19.92;52.88;100678.22;5112767;28;20050;-71
2022/08/11 00:35:27;;;;;;;4.65;2.13;;;;;;;19.76;53.72;100666.22;5112851;28;20122;-72
2022/08/11 00:38:17;;;;;;;4.93;2.22;;;;;;;19.75;53.87;100673.50;5112606;28;20066;-72
2022/08/11 00:40:55;;;;;;;5.40;2.20;;;;;;;19.65;54.25;100675.34;5112804;28;20047;-71
2022/08/11 00:43:38;;;;;;;4.35;2.20;;;;;;;19.56;54.71;100668.06;5112568;28;20409;-72
2022/08/11 00:46:15;;;;;;;4.20;2.50;;;;;;;19.41;55.48;100681.09;5112957;28;20397;-74
2022/08/11 00:48:59;;;;;;;4.60;2.47;;;;;;;19.52;55.02;100672.00;5112850;28;20063;-75
2022/08/11 00:51:51;;;;;;;6.05;2.47;;;;;;;19.35;55.89;100682.50;5112684;28;20348;-75
2022/08/11 00:54:58;;;;;;;4.38;2.65;;;;;;;19.36;56.11;100673.38;5145654;27;20480;-75
2022/08/11 00:57:56;;;;;;;3.83;2.47;;;;;;;19.27;56.47;100673.38;5112165;28;20048;-74
2022/08/11 01:00:27;;;;;;;3.75;2.47;;;;;;;19.16;56.74;100674.34;5104780;28;20062;-74
2022/08/11 01:03:18;;;;;;;4.45;2.60;;;;;;;19.07;57.47;100677.84;5112795;28;20117;-74
2022/08/11 01:06:11;;;;;;;5.85;2.50;;;;;;;19.27;56.52;100682.31;5112553;28;20523;-76
2022/08/11 01:08:48;;;;;;;;;;;;;;;19.13;57.03;100682.72;5112962;28;20451;-73
2022/08/11 01:12:05;;;;;;;5.13;2.65;;;;;;;19.10;57.51;100677.56;5111966;28;19949;-73
2022/08/11 01:15:14;;;;;;;5.75;2.50;;;;;;;19.02;58.24;100674.72;5112136;28;20458;-72
2022/08/11 01:18:25;;;;;;;4.28;2.25;;;;;;;19.03;58.63;100673.72;5112580;28;20047;-73
2022/08/11 01:21:36;;;;;;;5.57;2.80;;;;;;;18.91;59.28;100666.69;5112274;28;20121;-72
2022/08/11 01:24:43;;;;;;;6.40;2.55;;;;;;;18.97;59.26;100667.00;5112701;28;20106;-71
2022/08/11 01:27:47;;;;;;;3.85;2.22;;;;;;;18.78;60.30;100662.38;5112211;28;20036;-71
2022/08/11 01:30:48;;;;;;;4.47;2.30;;;;;;;18.69;61.29;100668.56;5112318;28;20047;-76
2022/08/11 01:33:50;;;;;;;5.50;2.58;;;;;;;18.72;61.25;100665.63;5112322;28;20040;-71
2022/08/11 01:36:47;;;;;;;4.50;2.65;;;;;;;18.72;61.18;100667.44;5079155;28;20048;-73
2022/08/11 01:40:09;;;;;;;5.50;2.55;;;;;;;18.73;61.14;100663.78;5115775;28;20073;-72
2022/08/11 01:45:59;;;;;;;4.10;2.40;;;;;;;18.73;61.65;100653.81;5115974;28;20483;-74
2022/08/11 01:48:40;;;;;;;5.03;2.35;;;;;;;18.77;61.42;100654.41;5115814;28;20039;-73
2022/08/11 01:51:19;;;;;;;4.75;2.45;;;;;;;18.76;61.69;100656.25;5116160;28;20074;-73
2022/08/11 01:53:57;;;;;;;5.10;2.30;;;;;;;18.78;61.60;100651.56;5116126;28;20490;-73
2022/08/11 01:56:47;;;;;;;5.13;2.40;;;;;;;18.74;61.98;100651.97;5148668;27;20503;-71
2022/08/11 01:59:20;;;;;;;5.30;2.08;;;;;;;18.81;61.56;100658.53;5116383;28;20101;-70
2022/08/11 02:02:18;;;;;;;4.25;2.03;;;;;;;18.74;62.07;100660.94;5116265;28;20055;-70
2022/08/11 02:04:59;;;;;;;5.63;2.63;;;;;;;18.80;62.02;100656.81;5114473;28;20507;-69
2022/08/11 02:07:33;;;;;;;5.47;2.38;;;;;;;18.86;61.81;100643.63;5115330;28;20491;-70
2022/08/11 02:13:18;;;;;;;4.57;2.25;;;;;;;18.88;61.66;100646.19;5115529;28;20071;-69
2022/08/11 02:16:13;;;;;;;3.72;1.90;;;;;;;18.88;61.68;100647.03;5115525;28;20039;-70
2022/08/11 02:24:39;;;;;;;3.45;2.13;;;;;;;18.86;61.58;100643.63;5115027;28;20118;-70
2022/08/11 02:27:18;;;;;;;3.90;2.20;;;;;;;18.83;61.58;100649.31;5115495;28;20071;-71
2022/08/11 02:30:06;;;;;;;4.25;1.95;;;;;;;18.80;62.15;100648.72;5114917;28;20425;-72
2022/08/11 02:35:41;;;;;;;4.53;2.03;;;;;;;18.92;61.52;100642.25;5114718;28;20377;-72
2022/08/11 02:38:18;;;;;;;4.97;2.22;;;;;;;18.87;61.70;100642.63;5114946;28;20040;-72
2022/08/11 02:40:53;;;;;;;2.55;1.83;;;;;;;18.91;61.49;100645.06;5115055;28;20046;-72
2022/08/11 02:43:39;;;;;;;5.18;2.20;;;;;;;18.93;61.45;100643.09;5114806;28;20563;-71
2022/08/11 02:46:27;;;;;;;3.38;1.95;;;;;;;18.86;61.70;100634.66;5114731;28;20039;-72
2022/08/11 02:52:07;;;;;;;4.97;2.40;;;;;;;18.80;62.26;100633.34;5104219;28;20444;-72
2022/08/11 02:54:43;;;;;;;4.93;2.00;;;;;;;18.74;62.37;100623.09;5114563;28;20487;-72
2022/08/11 02:57:20;;;;;;;3.90;2.00;;;;;;;18.87;61.62;100626.41;5114872;28;20477;-73
2022/08/11 02:59:56;;;;;;;5.78;2.53;;;;;;;18.97;61.16;100620.19;5114747;28;20384;-73
2022/08/11 03:02:47;;;;;;;5.10;2.50;;;;;;;18.94;60.99;100628.59;5114305;28;20082;-74
2022/08/11 03:05:25;;;;;;;4.63;2.22;;;;;;;18.86;61.33;100621.16;5114476;28;20498;-73
2022/08/11 03:08:17;;;;;;;5.82;2.60;;;;;;;18.93;60.73;100626.88;5113281;28;20093;-73
2022/08/11 03:16:45;;;;;;;4.72;2.50;;;;;;;18.80;61.38;100621.69;5114318;28;20040;-73
2022/08/11 03:19:21;;;;;;;4.57;2.38;;;;;;;18.75;61.89;100634.78;5114338;28;20047;-72
2022/08/11 03:22:01;;;;;;;4.18;2.55;;;;;;;18.69;61.94;100636.16;5114604;28;20047;-72
2022/08/11 03:24:41;;;;;;;5.80;2.38;;;;;;;18.67;62.37;100643.53;5114061;28;20052;-73
2022/08/11 03:27:20;;;;;;;4.25;2.35;;;;;;;18.52;63.16;100639.44;5114199;28;20050;-74
2022/08/11 03:30:05;;;;;;;5.53;2.10;;;;;;;18.59;62.96;100630.66;5113873;28;20043;-73
2022/08/11 03:34:00;;;;;;;4.30;2.28;;;;;;;18.51;63.58;100645.84;5113751;28;20043;-74
2022/08/11 03:35:44;;;;;;;4.90;2.17;;;;;;;18.54;63.53;100637.47;5113232;28;20039;-74
2022/08/11 03:38:15;;;;;;;5.43;2.47;;;;;;;18.58;63.60;100634.38;5113707;28;20031;-75
2022/08/11 03:44:19;;;;;;;5.38;2.58;;;;;;;18.48;63.94;100638.84;5113816;28;20040;-73
2022/08/11 03:47:06;;;;;;;6.22;2.30;;;;;;;18.59;63.52;100638.78;5113308;28;20131;-73
2022/08/11 03:49:53;;;;;;;4.50;2.20;;;;;;;18.65;63.14;100637.44;5113385;28;20085;-73
2022/08/11 03:52:34;;;;;;;5.10;2.33;;;;;;;18.62;63.54;100650.28;5113862;28;20074;-71
2022/08/11 03:55:11;;;;;;;4.97;2.28;;;;;;;18.67;63.21;100640.84;5113411;28;20524;-71
2022/08/11 03:58:18;;;;;;;7.00;2.80;;;;;;;18.76;62.81;100640.03;5113301;28;20040;-71
2022/08/11 04:01:20;;;;;;;4.45;2.55;;;;;;;18.60;63.75;100645.03;5089204;28;20051;-71
2022/08/11 04:04:19;;;;;;;4.80;2.58;;;;;;;18.63;63.62;100642.09;5111946;28;20075;-71
2022/08/11 04:07:12;;;;;;;3.88;2.30;;;;;;;18.72;63.17;100644.00;5113077;28;20380;-72
2022/08/11 04:10:11;;;;;;;4.07;2.35;;;;;;;18.74;63.36;100650.13;5113008;28;20403;-72
2022/08/11 04:13:09;;;;;;;5.97;2.92;;;;;;;18.77;63.03;100644.44;5079741;28;20043;-73
2022/08/11 04:16:01;;;;;;;4.25;2.53;;;;;;;18.83;62.87;100645.75;5111490;28;20161;-72
2022/08/11 04:19:01;;;;;;;4.18;2.40;;;;;;;18.86;62.69;100651.75;5112953;28;20039;-71
2022/08/11 04:22:06;;;;;;;6.13;2.30;;;;;;;19.10;61.56;100645.97;5112702;28;20050;-72
2022/08/11 04:25:11;;;;;;;7.22;2.80;;;;;;;19.66;58.85;100652.69;5111551;28;20058;-74
2022/08/11 04:28:07;;;;;;;4.50;2.30;;;;;;;19.79;57.76;100647.03;5100146;28;20071;-74
2022/08/11 04:31:33;;;;;;;6.30;2.47;;;;;;;19.87;56.60;100645.28;5112811;28;20050;-74
2022/08/11 04:34:50;;;;;;;4.35;2.28;;;;;;;20.07;56.31;100646.13;5112816;28;20046;-72
2022/08/11 04:37:43;;;;;;;5.40;2.40;;;;;;;20.01;55.71;100650.28;5112934;28;20122;-74
2022/08/11 04:40:50;;;;;;;5.20;2.40;;;;;;;20.26;55.31;100651.53;5111755;28;20422;-73
2022/08/11 04:43:38;;;;;;;6.40;2.10;;;;;;;20.56;53.79;100652.38;5112906;28;20046;-71
2022/08/11 04:46:52;;;;;;;7.35;2.50;;;;;;;20.85;52.76;100646.84;5112811;28;20044;-70
2022/08/11 05:02:36;;;;;;;8.25;3.05;;;;;;;21.33;50.58;100654.78;5112382;28;20105;-71
2022/08/11 05:05:31;;;;;;;4.93;2.67;;;;;;;21.34;50.78;100658.34;5112613;28;20045;-71
2022/08/11 05:08:38;;;;;;;4.50;2.50;;;;;;;21.16;51.37;100655.56;5112439;28;20046;-70
2022/08/11 05:11:30;;;;;;;6.03;2.50;;;;;;;21.45;50.78;100651.84;5112450;28;20071;-72
2022/08/11 05:34:50;;;;;;;5.30;2.20;;;;;;;25.15;40.45;100662.00;5116011;28;20067;-69
2022/08/11 05:37:22;;;;;;;6.47;2.13;;;;;;;24.81;40.30;100663.13;5116362;28;20039;-74
2022/08/11 05:57:21;;;;;;;3.13;1.90;;;;;;;24.06;42.63;100674.22;5136375;27;20131;-73
2022/08/11 06:00:14;;;;;;;6.47;2.30;;;;;;;25.41;39.49;100654.38;5134861;27;20522;-74
2022/08/11 06:02:49;;;;;;;8.00;2.17;;;;;;;25.36;39.75;100662.22;5134654;27;20138;-71
2022/08/11 06:05:17;;;;;;;6.40;2.00;;;;;;;25.41;39.89;100659.84;5135269;27;20047;-74
2022/08/11 06:07:48;;;;;;;4.25;1.90;;;;;;;25.98;38.04;100661.38;5134432;27;20444;-73
2022/08/11 06:10:29;;;;;;;4.47;1.80;;;;;;;26.35;37.39;100663.31;5136003;27;20039;-74
2022/08/11 06:12:59;;;;;;;7.63;2.20;;;;;;;26.86;36.73;100666.22;5134940;27;20051;-73
2022/08/11 06:15:29;;;;;;;6.00;1.98;;;;;;;26.92;36.44;100665.47;5136283;27;20043;-70
2022/08/11 06:18:01;;;;;;;6.68;2.03;;;;;;;27.07;36.51;100659.00;5136313;27;20065;-73
2022/08/11 06:20:35;;;;;;;5.03;2.40;;;;;;;27.65;35.22;100656.34;5136063;27;20456;-72
2022/08/11 06:23:06;;;;;;;3.38;1.83;;;;;;;27.78;35.17;100659.25;5133937;27;20451;-75
2022/08/11 06:25:36;;;;;;;4.43;2.10;;;;;;;26.73;36.63;100662.28;5135559;27;20066;-75
2022/08/11 06:28:07;;;;;;;6.70;2.10;;;;;;;26.91;36.42;100661.03;5134341;27;20078;-75
2022/08/11 06:30:39;;;;;;;5.40;2.38;;;;;;;26.47;37.10;100662.69;5135744;27;20444;-75
2022/08/11 06:33:13;;;;;;;7.40;2.03;;;;;;;26.43;37.29;100658.63;5134537;27;20134;-77
2022/08/11 06:36:00;;;;;;;3.47;1.90;;;;;;;25.00;39.23;100656.41;5135642;27;20047;-75
2022/08/11 06:38:49;;;;;;;3.55;1.92;;;;;;;24.25;41.12;100657.53;5134130;27;20072;-74
2022/08/11 06:41:30;;;;;;;4.40;1.88;;;;;;;26.73;36.95;100659.53;5135298;27;20039;-74
2022/08/11 06:44:09;;;;;;;4.03;1.92;;;;;;;26.12;37.10;100663.31;5135115;27;20055;-73
2022/08/11 06:46:39;;;;;;;6.28;2.13;;;;;;;27.19;35.21;100659.34;5135183;27;20050;-73
2022/08/11 06:51:56;;;;;;;4.25;1.77;;;;;;;26.01;37.23;100653.66;5134740;27;20146;-73
2022/08/11 06:54:30;;;;;;;5.95;2.00;;;;;;;26.37;36.81;100659.38;5134955;27;20043;-74
2022/08/11 07:02:53;;;;;;;3.90;1.98;;;;;;;26.67;35.58;100657.53;5134570;27;20143;-75
2022/08/11 07:05:27;;;;;;;3.58;1.63;;;;;;;25.93;37.02;100648.25;5135333;27;20043;-74
2022/08/11 07:17:21;;;;;;;6.00;2.10;;;;;;;25.08;38.94;100645.47;5133622;27;20061;-74
2022/08/11 07:31:23;;;;;;;9.25;1.95;;;;;;;24.70;39.98;100641.63;5134207;27;20075;-73
2022/08/11 07:33:56;;;;;;;4.72;1.80;;;;;;;24.64;39.64;100647.81;5133886;27;20091;-73
2022/08/11 07:36:40;;;;;;;4.50;1.73;;;;;;;24.45;39.70;100647.16;5132167;27;20047;-74
2022/08/11 07:39:14;;;;;;;;;;;;;;;24.78;38.84;100649.81;5134704;27;20468;-73
2022/08/11 07:41:43;;;;;;;5.47;2.00;;;;;;;24.82;38.83;100648.44;5133950;27;20042;-73
2022/08/11 07:44:12;;;;;;;5.55;1.90;;;;;;;24.65;38.91;100644.06;5132616;27;20044;-74
2022/08/11 07:52:26;;;;;;;4.82;1.58;;;;;;;24.85;37.40;100637.16;5133967;27;20054;-73
2022/08/11 07:54:57;;;;;;;2.70;1.48;;;;;;;24.71;37.99;100635.19;5133670;27;20031;-73
2022/08/11 08:17:50;;;;;;;4.70;1.83;;;;;;;25.30;36.96;100609.22;5132185;27;20054;-74
2022/08/11 08:20:45;;;;;;;3.28;1.58;;;;;;;25.26;36.26;100617.91;5134015;27;20077;-73
2022/08/11 08:23:14;;;;;;;3.53;1.50;;;;;;;25.29;35.61;100609.41;5132250;27;20178;-74
2022/08/11 08:25:45;;;;;;;3.20;1.75;;;;;;;25.27;34.54;100598.63;5133125;27;20491;-74
2022/08/11 08:28:20;;;;;;;2.97;1.50;;;;;;;25.11;34.14;100599.59;5131914;27;20051;-73
2022/08/11 08:30:50;;;;;;;3.15;1.48;;;;;;;25.25;33.44;100599.84;5131672;27;20150;-73
2022/08/11 08:33:21;;;;;;;5.18;1.40;;;;;;;25.36;34.13;100610.34;5132215;27;20047;-74
2022/08/11 08:36:10;;;;;;;3.15;1.33;;;;;;;25.39;34.14;100604.56;5133062;27;20039;-73
2022/08/11 08:38:41;;;;;;;2.97;1.40;;;;;;;25.19;33.69;100612.34;5133430;27;20040;-73
2022/08/11 08:41:11;;;;;;;1.83;1.25;;;;;;;25.00;33.91;100599.94;5133418;27;20043;-73
2022/08/11 08:43:48;;;;;;;2.50;1.23;;;;;;;25.07;33.84;100592.75;5132814;27;20039;-74
2022/08/11 08:46:20;;;;;;;3.25;1.33;;;;;;;25.09;34.24;100600.78;5132824;27;20169;-73
2022/08/11 08:48:49;;;;;;;3.27;1.50;;;;;;;25.20;34.11;100602.28;5132811;27;20498;-73
2022/08/11 08:51:34;;;;;;;3.50;1.40;;;;;;;25.14;34.46;100592.06;5133021;27;20114;-73
2022/08/11 08:54:27;;;;;;;2.42;1.42;;;;;;;24.88;34.53;100593.16;5133177;27;20050;-74
2022/08/11 08:56:56;;;;;;;4.20;1.45;;;;;;;24.82;34.68;100594.72;5131316;27;20051;-73
2022/08/11 08:59:27;;;;;;;3.17;1.65;;;;;;;24.88;34.70;100601.34;5132565;27;20045;-73
2022/08/11 09:02:18;;;;;;;2.83;1.50;;;;;;;24.94;34.49;100581.53;5132693;27;20473;-73
2022/08/11 09:05:01;;;;;;;6.38;1.90;;;;;;;24.89;34.83;100586.66;5132599;27;20058;-73
2022/08/11 09:07:30;;;;;;;4.30;1.73;;;;;;;25.01;34.69;100577.09;5132707;27;20046;-74
2022/08/11 09:10:10;;;;;;;3.30;1.52;;;;;;;25.03;34.23;100582.41;5132844;27;20142;-73
2022/08/11 09:12:42;;;;;;;3.10;1.63;;;;;;;24.92;34.30;100578.16;5131661;28;20096;-73
2022/08/11 09:15:13;;;;;;;3.40;1.60;;;;;;;25.13;34.61;100579.44;5132808;27;20070;-73
2022/08/11 09:17:50;;;;;;;4.20;1.63;;;;;;;25.37;33.54;100571.94;5132460;27;20460;-73
2022/08/11 09:20:21;;;;;;;3.72;2.00;;;;;;;25.38;33.45;100561.88;5132834;27;20035;-73
2022/08/11 09:28:48;;;;;;;4.70;1.90;;;;;;;25.83;31.33;100561.06;5132438;27;20043;-74
2022/08/11 09:31:18;;;;;;;3.50;2.00;;;;;;;25.78;30.61;100562.66;5132876;28;20402;-73
2022/08/11 09:33:52;;;;;;;2.58;1.60;;;;;;;26.22;29.95;100560.88;5130999;28;20483;-74
2022/08/11 09:41:55;;;;;;;19.35;10.48;;;;;;;26.24;30.21;100563.41;5132584;28;20058;-75
2022/08/11 09:47:25;;;;;;;3.08;1.70;;;;;;;26.01;30.18;100562.63;5130760;27;20051;-73
2022/08/11 09:49:58;;;;;;;2.75;1.52;;;;;;;26.04;30.95;100548.56;5131180;28;20126;-74
2022/08/11 09:52:30;;;;;;;5.05;1.70;;;;;;;26.03;30.13;100550.47;5132399;27;20078;-73
2022/08/11 09:54:59;;;;;;;4.35;1.80;;;;;;;26.10;29.92;100550.56;5130774;28;20051;-74
2022/08/11 10:00:14;;;;;;;3.00;1.10;;;;;;;26.12;30.12;100549.34;5136070;27;20071;-73
2022/08/11 10:02:47;;;;;;;3.90;1.10;;;;;;;26.21;29.72;100537.28;5136343;27;20051;-74
2022/08/11 10:08:08;;;;;;;2.47;1.10;;;;;;;26.82;29.05;100529.75;5135935;27;20047;-72
2022/08/11 10:10:39;;;;;;;4.78;1.50;;;;;;;26.76;30.59;100525.06;5135042;27;20047;-74
2022/08/11 10:13:11;;;;;;;3.15;1.40;;;;;;;26.66;32.17;100535.47;5136032;27;20462;-74
2022/08/11 10:16:02;;;;;;;2.75;1.55;;;;;;;26.48;31.54;100537.72;5136038;27;20058;-74
2022/08/11 10:18:51;;;;;;;3.97;1.58;;;;;;;26.18;31.79;100531.38;5136074;27;20043;-73
2022/08/11 10:21:30;;;;;;;3.95;1.40;;;;;;;26.34;32.29;100516.66;5134801;27;20047;-73
2022/08/11 10:26:54;;;;;;;3.30;1.35;;;;;;;26.66;31.74;100520.94;5146272;27;20047;-73
2022/08/11 10:35:30;;;;;;;3.88;1.60;;;;;;;26.34;31.13;100502.97;5136001;27;20424;-74
2022/08/11 10:38:00;;;;;;;3.42;1.50;;;;;;;26.30;31.48;100507.13;5135675;27;20067;-74
2022/08/11 10:43:01;;;;;;;3.80;1.40;;;;;;;26.53;31.32;100502.44;5134172;27;20096;-74
2022/08/11 10:43:39;;;;;;;2.10;1.40;;;;;;;26.57;31.38;100506.50;5134118;27;20083;-73
2022/08/11 10:49:14;;;;;;;5.13;1.70;;;;;;;26.52;30.52;100498.00;5135229;27;20049;-74
2022/08/11 11:00:09;;;;;;;2.03;1.15;;;;;;;27.30;28.80;100490.94;5134918;27;20065;-73
2022/08/11 11:02:39;;;;;;;2.95;1.27;;;;;;;27.32;28.88;100487.00;5133569;27;20063;-74
2022/08/11 11:05:15;;;;;;;2.63;1.20;;;;;;;27.64;28.56;100474.63;5133415;27;20043;-73
2022/08/11 11:07:52;;;;;;;3.03;1.48;;;;;;;27.83;29.09;100478.63;5135042;27;20035;-73
2022/08/11 11:10:21;;;;;;;3.03;1.40;;;;;;;27.54;28.84;100470.56;5134928;27;20046;-73
2022/08/11 11:18:34;;;;;;;1.95;1.20;;;;;;;27.55;28.43;100474.97;5133673;27;19938;-73
2022/08/11 11:21:06;;;;;;;2.65;1.30;;;;;;;26.98;29.67;100470.38;5133208;27;20046;-75
2022/08/11 11:23:41;;;;;;;3.63;1.48;;;;;;;27.23;29.33;100460.78;5133477;27;20146;-74
2022/08/11 11:26:37;;;;;;;2.55;1.10;;;;;;;27.27;27.98;100467.56;5132995;27;20118;-74
2022/08/11 11:29:29;;;;;;;3.60;1.50;;;;;;;27.39;27.55;100460.50;5132635;27;20134;-73
2022/08/11 11:32:16;;;;;;;2.17;1.13;;;;;;;27.57;28.54;100451.81;5133019;27;20127;-73
2022/08/11 11:35:16;;;;;;;1.77;1.10;;;;;;;27.65;28.32;100450.81;5133024;27;20067;-73
2022/08/11 11:37:46;;;;;;;3.70;1.40;;;;;;;27.77;28.27;100452.00;5132852;27;20453;-73
2022/08/11 11:40:36;;;;;;;2.22;1.30;;;;;;;27.76;27.12;100447.56;5134457;27;20488;-73
2022/08/11 11:43:05;;;;;;;;;;;;;;;27.71;27.42;100455.56;5132967;27;20503;-74
2022/08/11 11:45:33;;;;;;;2.45;1.38;;;;;;;27.69;27.46;100445.81;5134060;27;19919;-74
2022/08/11 11:48:02;;;;;;;2.72;1.25;;;;;;;27.18;26.30;100446.81;5134198;27;20061;-74
2022/08/11 11:50:33;;;;;;;1.90;1.20;;;;;;;27.32;26.82;100442.34;5134236;27;20046;-73
2022/08/11 11:53:04;;;;;;;3.00;1.45;;;;;;;27.45;26.42;100447.06;5133803;27;20053;-74
2022/08/11 11:55:35;;;;;;;0.95;0.88;;;;;;;27.25;26.54;100458.69;5132675;27;20538;-73
2022/08/11 12:03:45;;;;;;;2.95;1.20;;;;;;;27.12;27.60;100442.16;5133666;27;20148;-74
2022/08/11 12:06:14;;;;;;;1.92;1.20;;;;;;;27.41;27.11;100429.31;5131976;27;20131;-73
2022/08/11 12:08:44;;;;;;;2.90;1.27;;;;;;;27.50;27.14;100425.41;5133714;27;20099;-73
2022/08/11 12:14:11;;;;;;;1.98;1.20;;;;;;;27.78;26.78;100415.31;5094783;27;20052;-73
2022/08/11 12:16:41;;;;;;;3.03;1.20;;;;;;;27.83;27.07;100412.00;5133716;27;20142;-73
2022/08/11 12:19:13;;;;;;;2.97;1.10;;;;;;;27.95;26.90;100403.00;5133351;27;20035;-72
2022/08/11 12:27:19;;;;;;;3.63;1.35;;;;;;;28.07;26.19;100407.91;5131921;27;20079;-73
2022/08/11 12:27:20;;;;;;;2.40;1.17;;;;;;;27.85;26.68;100410.75;5133023;27;20411;-73
2022/08/11 12:29:56;;;;;;;3.65;1.10;;;;;;;27.85;27.33;100397.03;5131851;27;20503;-73
2022/08/11 12:32:27;;;;;;;2.85;1.10;;;;;;;27.80;27.37;100401.44;5133185;27;20041;-73
2022/08/11 12:34:56;;;;;;;2.58;1.20;;;;;;;27.92;26.91;100405.31;5132512;27;20050;-75
2022/08/11 12:37:30;;;;;;;9.07;1.20;;;;;;;27.76;27.44;100398.25;5131616;27;20146;-73
2022/08/11 12:46:08;;;;;;;2.97;1.27;;;;;;;27.51;27.84;100391.50;5132852;27;20484;-75
2022/08/11 12:54:56;;;;;;;3.15;1.00;;;;;;;27.68;27.37;100392.91;5132796;27;20126;-73
2022/08/11 13:05:56;;;;;;;1.65;0.90;;;;;;;27.60;27.41;100373.84;5132740;28;20055;-73
2022/08/11 13:08:26;;;;;;;1.73;1.08;;;;;;;27.45;27.29;100382.19;5132916;27;20380;-74
2022/08/11 13:13:45;;;;;;;2.08;1.00;;;;;;;27.69;27.07;100380.06;5132812;28;20100;-73
2022/08/11 13:16:28;;;;;;;3.00;1.13;;;;;;;27.80;27.37;100374.88;5131593;28;20054;-73
2022/08/11 13:18:59;;;;;;;1.67;1.20;;;;;;;27.77;27.94;100374.41;5133207;27;20035;-74
2022/08/11 13:21:30;;;;;;;1.52;0.90;;;;;;;27.59;27.86;100372.16;5132927;27;20039;-73
2022/08/11 13:23:58;;;;;;;1.17;0.80;;;;;;;27.44;28.07;100371.44;5132370;27;20372;-75
2022/08/11 13:26:36;;;;;;;4.10;1.30;;;;;;;27.34;28.16;100378.09;5131595;28;20054;-74
2022/08/11 13:29:19;;;;;;;2.28;1.20;;;;;;;27.53;28.35;100367.50;5131226;28;20058;-73
2022/08/11 13:31:49;;;;;;;2.33;1.10;;;;;;;27.57;28.01;100364.13;5131529;28;20051;-73
2022/08/11 13:34:18;;;;;;;4.03;1.15;;;;;;;27.85;27.62;100371.53;5133413;27;20134;-73
2022/08/11 13:36:50;;;;;;;1.55;1.10;;;;;;;27.92;27.83;100359.56;5135560;27;20050;-73
2022/08/11 13:39:21;;;;;;;2.97;1.10;;;;;;;28.31;27.58;100349.84;5135096;27;20085;-72
2022/08/11 13:41:53;;;;;;;1.50;1.00;;;;;;;28.01;29.06;100349.28;5135426;27;20100;-74
2022/08/11 13:44:22;;;;;;;3.28;1.35;;;;;;;28.10;28.93;100350.78;5134659;27;20059;-73
2022/08/11 13:46:57;;;;;;;1.83;1.27;;;;;;;27.87;28.96;100348.34;5136313;27;20047;-73
2022/08/11 13:49:27;;;;;;;2.13;1.05;;;;;;;27.51;29.91;100347.69;5136664;27;20410;-74
2022/08/11 13:51:56;;;;;;;2.67;1.60;;;;;;;27.54;29.87;100342.63;5136237;27;20399;-73
2022/08/11 13:54:27;;;;;;;1.10;0.80;;;;;;;27.59;30.00;100339.28;5136481;27;20035;-73
2022/08/11 13:57:00;;;;;;;1.38;0.95;;;;;;;27.81;30.27;100346.44;5136472;27;20042;-74
2022/08/11 13:59:30;;;;;;;2.55;1.13;;;;;;;27.61;30.70;100342.69;5136350;27;20061;-73
2022/08/11 14:02:16;;;;;;;2.45;1.17;;;;;;;27.50;29.84;100341.31;5136050;27;20059;-75
2022/08/11 14:04:59;;;;;;;3.97;1.10;;;;;;;27.10;30.08;100340.19;5134834;27;20139;-73
2022/08/11 14:07:34;;;;;;;2.80;1.27;;;;;;;27.24;30.12;100358.44;5135947;27;20078;-74
2022/08/11 14:10:06;;;;;;;1.27;1.00;;;;;;;27.23;30.58;100343.03;5135869;27;20035;-74
2022/08/11 14:15:23;;;;;;;2.05;1.00;;;;;;;27.36;29.98;100329.44;5135625;27;20042;-74
2022/08/11 14:18:02;;;;;;;3.13;1.10;;;;;;;27.52;29.44;100327.44;5135923;27;20039;-74
2022/08/11 14:22:05;;;;;;;2.17;1.20;;;;;;;27.73;29.44;100330.16;5136200;27;20430;-74
2022/08/11 14:23:25;;;;;;;2.83;1.38;;;;;;;27.64;29.97;100328.56;5135646;27;20441;-74
2022/08/11 14:28:57;;;;;;;2.33;1.20;;;;;;;27.49;29.43;100327.84;5112618;28;19955;-74
2022/08/11 14:31:28;;;;;;;2.30;1.20;;;;;;;27.52;29.06;100322.81;5112731;28;20418;-74
2022/08/11 14:34:02;;;;;;;1.80;1.10;;;;;;;27.32;29.18;100322.69;5124140;27;20073;-74
2022/08/11 14:36:33;;;;;;;1.48;0.95;;;;;;;27.49;28.68;100322.34;5135542;27;20050;-74
2022/08/11 14:39:10;;;;;;;2.65;1.13;;;;;;;27.37;27.96;100322.91;5134396;27;20066;-73
2022/08/11 14:47:32;;;;;;;2.55;1.05;;;;;;;27.28;28.42;100315.06;5135243;27;20050;-73
2022/08/11 14:50:03;;;;;;;2.63;1.20;;;;;;;27.27;28.67;100322.41;5135380;27;20039;-73
2022/08/11 14:52:49;;;;;;;2.03;0.85;;;;;;;27.23;29.46;100320.28;5135448;27;20117;-75
2022/08/11 14:58:05;;;;;;;3.42;0.98;;;;;;;27.27;29.50;100313.34;5135034;27;20387;-75
2022/08/11 15:00:35;;;;;;;1.95;1.10;;;;;;;27.02;29.81;100321.13;5135165;27;20044;-74
2022/08/11 15:03:09;;;;;;;2.72;1.20;;;;;;;27.19;29.30;100317.09;5134757;27;20059;-73
2022/08/11 15:05:47;;;;;;;1.77;0.82;;;;;;;27.02;29.69;100318.38;5135001;27;20050;-74
2022/08/11 15:14:07;;;;;;;2.15;1.00;;;;;;;26.62;30.61;100331.69;5133682;27;20402;-75
2022/08/11 15:19:31;;;;;;;1.92;1.00;;;;;;;26.77;30.45;100324.28;5134765;27;20255;-74
2022/08/11 15:24:58;;;;;;;2.03;1.10;;;;;;;26.76;30.40;100319.84;5134571;27;20041;-73
2022/08/11 15:38:59;;;;;;;2.15;1.10;;;;;;;26.43;30.94;100308.56;5123756;27;20051;-74
2022/08/11 15:47:38;;;;;;;2.35;1.13;;;;;;;26.29;31.87;100320.38;5134502;27;20069;-72
2022/08/11 15:50:14;;;;;;;2.90;1.10;;;;;;;26.07;32.51;100321.38;5134168;27;20045;-73
2022/08/11 15:52:49;;;;;;;1.13;0.98;;;;;;;26.04;32.58;100317.09;5133163;27;20407;-74
2022/08/11 15:55:19;;;;;;;3.72;1.20;;;;;;;26.13;32.60;100307.75;5132361;27;20099;-74
2022/08/11 16:06:39;;;;;;;3.90;1.13;;;;;;;26.04;34.32;100308.91;5134209;27;20096;-74
2022/08/11 16:09:22;;;;;;;2.78;1.20;;;;;;;25.93;35.62;100307.50;5134068;27;20035;-77
2022/08/11 16:11:54;;;;;;;2.03;1.10;;;;;;;25.92;35.16;100307.72;5134233;27;20544;-82
2022/08/11 16:17:12;;;;;;;3.30;1.17;;;;;;;25.88;34.69;100309.13;5133230;27;20133;-77
2022/08/11 16:19:42;;;;;;;2.80;1.20;;;;;;;25.79;35.21;100307.53;5132361;27;20046;-75
2022/08/11 16:22:12;;;;;;;2.53;1.35;;;;;;;25.88;34.16;100301.78;5133753;27;20047;-78
2022/08/11 16:24:44;;;;;;;3.83;1.40;;;;;;;25.78;34.03;100303.13;5133626;27;20394;-79
2022/08/11 16:27:38;;;;;;;2.22;1.20;;;;;;;25.74;33.64;100299.06;5132301;27;20070;-79
2022/08/11 16:30:09;;;;;;;4.47;1.23;;;;;;;25.78;33.53;100303.97;5133794;27;20448;-77
2022/08/11 16:32:40;;;;;;;1.92;1.10;;;;;;;25.76;33.88;100303.28;5133815;27;20043;-77
2022/08/11 16:40:46;;;;;;;3.47;1.02;;;;;;;25.73;33.64;100297.38;5132331;27;20054;-75
2022/08/11 16:48:55;;;;;;;2.35;1.30;;;;;;;25.55;33.74;100295.81;5133121;27;20121;-75
2022/08/11 16:51:24;;;;;;;3.63;1.40;;;;;;;25.60;33.88;100296.13;5133412;27;20043;-75
2022/08/11 16:53:52;;;;;;;3.50;1.20;;;;;;;25.64;34.16;100300.16;5132960;27;20071;-75
2022/08/11 16:56:36;;;;;;;3.92;1.40;;;;;;;25.67;33.75;100299.78;5133294;27;20134;-76
2022/08/11 16:59:13;;;;;;;2.83;1.30;;;;;;;25.63;33.74;100300.34;5133088;27;20039;-76
2022/08/11 17:01:47;;;;;;;2.65;1.20;;;;;;;25.60;34.39;100307.03;5131707;27;20051;-75
2022/08/11 17:13:27;;;;;;;3.58;1.40;;;;;;;25.28;34.82;100310.09;5118977;28;20509;-77